sensor_id;sensor_type;location;lat;lon;timestamp;P1;durP1;ratioP1;P2;durP2;ratioP2
77409;SDS011;66481;51.332;22.804;2023-07-13T00:03:15;9.80;;;6.80;;
77409;SDS011;66481;51.332;22.804;2023-07-13T00:07:17;11.48;;;7.03;;
77409;SDS011;66481;51.332;22.804;2023-07-13T00:11:20;9.77;;;6.57;;
77409;SDS011;66481;51.332;22.804;2023-07-13T00:15:23;12.95;;;7.30;;
77409;SDS011;66481;51.332;22.804;2023-07-13T00:19:25;9.82;;;6.70;;
77409;SDS011;66481;51.332;22.804;2023-07-13T00:23:26;14.75;;;7.85;;
77409;SDS011;66481;51.332;22.804;2023-07-13T00:27:27;11.77;;;7.70;;
77409;SDS011;66481;51.332;22.804;2023-07-13T00:31:30;11.98;;;8.18;;
77409;SDS011;66481;51.332;22.804;2023-07-13T00:35:31;11.75;;;7.20;;
77409;SDS011;66481;51.332;22.804;2023-07-13T00:39:33;9.38;;;7.00;;
77409;SDS011;66481;51.332;22.804;2023-07-13T00:43:36;11.50;;;6.78;;
77409;SDS011;66481;51.332;22.804;2023-07-13T00:47:40;12.65;;;6.70;;
77409;SDS011;66481;51.332;22.804;2023-07-13T00:51:47;7.85;;;6.63;;
77409;SDS011;66481;51.332;22.804;2023-07-13T00:55:51;10.65;;;6.82;;
77409;SDS011;66481;51.332;22.804;2023-07-13T00:59:57;13.60;;;6.82;;
77409;SDS011;66481;51.332;22.804;2023-07-13T01:04:03;9.73;;;7.13;;
77409;SDS011;66481;51.332;22.804;2023-07-13T01:08:08;17.95;;;7.57;;
77409;SDS011;66481;51.332;22.804;2023-07-13T01:12:10;10.13;;;7.18;;
77409;SDS011;66481;51.332;22.804;2023-07-13T01:16:18;11.63;;;7.63;;
77409;SDS011;66481;51.332;22.804;2023-07-13T01:20:32;11.88;;;7.05;;
77409;SDS011;66481;51.332;22.804;2023-07-13T01:24:37;12.52;;;7.63;;
77409;SDS011;66481;51.332;22.804;2023-07-13T01:28:39;13.57;;;8.25;;
77409;SDS011;66481;51.332;22.804;2023-07-13T01:32:41;14.88;;;7.55;;
77409;SDS011;66481;51.332;22.804;2023-07-13T01:36:43;11.05;;;8.07;;
77409;SDS011;66481;51.332;22.804;2023-07-13T01:40:44;12.73;;;8.02;;
77409;SDS011;66481;51.332;22.804;2023-07-13T01:44:45;14.02;;;7.70;;
77409;SDS011;66481;51.332;22.804;2023-07-13T01:48:47;11.55;;;8.27;;
77409;SDS011;66481;51.332;22.804;2023-07-13T01:52:49;10.32;;;9.00;;
77409;SDS011;66481;51.332;22.804;2023-07-13T01:56:50;14.85;;;9.63;;
77409;SDS011;66481;51.332;22.804;2023-07-13T02:00:51;14.73;;;10.15;;
77409;SDS011;66481;51.332;22.804;2023-07-13T02:04:52;18.38;;;10.30;;
77409;SDS011;66481;51.332;22.804;2023-07-13T02:08:53;23.50;;;11.15;;
77409;SDS011;66481;51.332;22.804;2023-07-13T02:12:54;16.83;;;11.00;;
77409;SDS011;66481;51.332;22.804;2023-07-13T02:16:55;16.63;;;10.73;;
77409;SDS011;66481;51.332;22.804;2023-07-13T02:20:57;15.38;;;10.02;;
77409;SDS011;66481;51.332;22.804;2023-07-13T02:24:58;13.77;;;9.98;;
77409;SDS011;66481;51.332;22.804;2023-07-13T02:28:59;14.90;;;8.57;;
77409;SDS011;66481;51.332;22.804;2023-07-13T02:33:00;14.85;;;10.45;;
77409;SDS011;66481;51.332;22.804;2023-07-13T02:37:01;15.23;;;9.88;;
77409;SDS011;66481;51.332;22.804;2023-07-13T02:41:03;17.63;;;10.27;;
77409;SDS011;66481;51.332;22.804;2023-07-13T02:45:06;17.25;;;10.93;;
77409;SDS011;66481;51.332;22.804;2023-07-13T02:49:09;24.98;;;11.48;;
77409;SDS011;66481;51.332;22.804;2023-07-13T02:53:10;17.35;;;10.82;;
77409;SDS011;66481;51.332;22.804;2023-07-13T02:57:12;15.88;;;10.07;;
77409;SDS011;66481;51.332;22.804;2023-07-13T03:01:14;16.95;;;9.85;;
77409;SDS011;66481;51.332;22.804;2023-07-13T03:05:19;20.80;;;11.43;;
77409;SDS011;66481;51.332;22.804;2023-07-13T03:09:20;20.27;;;10.02;;
77409;SDS011;66481;51.332;22.804;2023-07-13T03:13:21;17.55;;;9.77;;
77409;SDS011;66481;51.332;22.804;2023-07-13T03:17:22;18.05;;;12.65;;
77409;SDS011;66481;51.332;22.804;2023-07-13T03:21:23;15.68;;;9.50;;
77409;SDS011;66481;51.332;22.804;2023-07-13T03:25:24;17.02;;;10.10;;
77409;SDS011;66481;51.332;22.804;2023-07-13T03:29:25;16.08;;;10.57;;
77409;SDS011;66481;51.332;22.804;2023-07-13T03:33:26;15.25;;;9.07;;
77409;SDS011;66481;51.332;22.804;2023-07-13T03:37:27;13.45;;;8.55;;
77409;SDS011;66481;51.332;22.804;2023-07-13T03:41:28;16.77;;;9.43;;
77409;SDS011;66481;51.332;22.804;2023-07-13T03:45:29;13.07;;;8.98;;
77409;SDS011;66481;51.332;22.804;2023-07-13T03:49:32;17.55;;;8.82;;
77409;SDS011;66481;51.332;22.804;2023-07-13T03:53:37;11.25;;;7.53;;
77409;SDS011;66481;51.332;22.804;2023-07-13T03:57:39;16.30;;;8.80;;
77409;SDS011;66481;51.332;22.804;2023-07-13T04:01:42;12.73;;;8.55;;
77409;SDS011;66481;51.332;22.804;2023-07-13T04:05:45;16.02;;;9.02;;
77409;SDS011;66481;51.332;22.804;2023-07-13T04:09:46;14.27;;;9.57;;
77409;SDS011;66481;51.332;22.804;2023-07-13T04:13:47;18.52;;;10.50;;
77409;SDS011;66481;51.332;22.804;2023-07-13T04:17:49;15.13;;;9.52;;
77409;SDS011;66481;51.332;22.804;2023-07-13T04:21:50;16.08;;;10.05;;
77409;SDS011;66481;51.332;22.804;2023-07-13T04:25:52;13.98;;;8.77;;
77409;SDS011;66481;51.332;22.804;2023-07-13T04:29:53;14.50;;;9.90;;
77409;SDS011;66481;51.332;22.804;2023-07-13T04:33:55;12.55;;;8.85;;
77409;SDS011;66481;51.332;22.804;2023-07-13T04:37:57;16.50;;;9.70;;
77409;SDS011;66481;51.332;22.804;2023-07-13T04:41:58;14.25;;;10.23;;
77409;SDS011;66481;51.332;22.804;2023-07-13T04:46:04;12.40;;;11.07;;
77409;SDS011;66481;51.332;22.804;2023-07-13T04:50:08;15.93;;;10.32;;
77409;SDS011;66481;51.332;22.804;2023-07-13T04:54:11;13.02;;;10.65;;
77409;SDS011;66481;51.332;22.804;2023-07-13T04:58:13;13.75;;;11.48;;
77409;SDS011;66481;51.332;22.804;2023-07-13T05:02:14;17.80;;;12.00;;
77409;SDS011;66481;51.332;22.804;2023-07-13T05:06:16;15.30;;;12.10;;
77409;SDS011;66481;51.332;22.804;2023-07-13T05:10:19;16.67;;;12.07;;
77409;SDS011;66481;51.332;22.804;2023-07-13T05:14:21;15.45;;;12.00;;
77409;SDS011;66481;51.332;22.804;2023-07-13T05:18:23;14.15;;;11.95;;
77409;SDS011;66481;51.332;22.804;2023-07-13T05:22:25;15.10;;;11.82;;
77409;SDS011;66481;51.332;22.804;2023-07-13T05:26:26;15.90;;;13.68;;
77409;SDS011;66481;51.332;22.804;2023-07-13T05:30:28;15.95;;;13.13;;
77409;SDS011;66481;51.332;22.804;2023-07-13T05:34:30;14.43;;;12.45;;
77409;SDS011;66481;51.332;22.804;2023-07-13T05:38:31;16.95;;;13.50;;
77409;SDS011;66481;51.332;22.804;2023-07-13T05:42:32;14.30;;;11.35;;
77409;SDS011;66481;51.332;22.804;2023-07-13T05:46:33;14.57;;;11.43;;
77409;SDS011;66481;51.332;22.804;2023-07-13T05:50:34;14.80;;;12.32;;
77409;SDS011;66481;51.332;22.804;2023-07-13T05:54:35;18.52;;;12.98;;
77409;SDS011;66481;51.332;22.804;2023-07-13T05:58:37;14.98;;;11.60;;
77409;SDS011;66481;51.332;22.804;2023-07-13T06:02:39;14.65;;;12.30;;
77409;SDS011;66481;51.332;22.804;2023-07-13T06:06:40;13.65;;;11.85;;
77409;SDS011;66481;51.332;22.804;2023-07-13T06:10:41;13.98;;;12.55;;
77409;SDS011;66481;51.332;22.804;2023-07-13T06:14:43;13.88;;;11.65;;
77409;SDS011;66481;51.332;22.804;2023-07-13T06:18:44;14.77;;;11.82;;
77409;SDS011;66481;51.332;22.804;2023-07-13T06:22:48;13.68;;;12.23;;
77409;SDS011;66481;51.332;22.804;2023-07-13T06:26:50;13.55;;;10.75;;
77409;SDS011;66481;51.332;22.804;2023-07-13T06:30:51;14.43;;;12.93;;
77409;SDS011;66481;51.332;22.804;2023-07-13T06:34:52;14.15;;;10.80;;
77409;SDS011;66481;51.332;22.804;2023-07-13T06:38:53;17.02;;;12.52;;
77409;SDS011;66481;51.332;22.804;2023-07-13T06:42:55;12.35;;;10.57;;
77409;SDS011;66481;51.332;22.804;2023-07-13T06:47:00;13.85;;;10.73;;
77409;SDS011;66481;51.332;22.804;2023-07-13T06:55:05;14.00;;;11.70;;
77409;SDS011;66481;51.332;22.804;2023-07-13T06:59:07;13.07;;;11.70;;
77409;SDS011;66481;51.332;22.804;2023-07-13T07:03:11;13.00;;;10.57;;
77409;SDS011;66481;51.332;22.804;2023-07-13T07:07:13;13.30;;;10.50;;
77409;SDS011;66481;51.332;22.804;2023-07-13T07:11:20;12.98;;;10.43;;
77409;SDS011;66481;51.332;22.804;2023-07-13T07:15:24;13.43;;;10.25;;
77409;SDS011;66481;51.332;22.804;2023-07-13T07:19:30;11.50;;;9.65;;
77409;SDS011;66481;51.332;22.804;2023-07-13T07:23:34;11.63;;;9.15;;
77409;SDS011;66481;51.332;22.804;2023-07-13T07:27:37;12.30;;;9.88;;
77409;SDS011;66481;51.332;22.804;2023-07-13T07:31:39;10.77;;;8.80;;
77409;SDS011;66481;51.332;22.804;2023-07-13T07:35:40;10.73;;;9.55;;
77409;SDS011;66481;51.332;22.804;2023-07-13T07:39:42;12.00;;;8.98;;
77409;SDS011;66481;51.332;22.804;2023-07-13T07:43:45;10.73;;;9.68;;
77409;SDS011;66481;51.332;22.804;2023-07-13T07:47:47;10.15;;;9.10;;
77409;SDS011;66481;51.332;22.804;2023-07-13T07:51:49;11.25;;;9.68;;
77409;SDS011;66481;51.332;22.804;2023-07-13T07:55:52;9.68;;;8.70;;
77409;SDS011;66481;51.332;22.804;2023-07-13T08:03:55;9.32;;;7.97;;
77409;SDS011;66481;51.332;22.804;2023-07-13T08:07:58;9.10;;;8.13;;
77409;SDS011;66481;51.332;22.804;2023-07-13T08:12:00;10.18;;;9.00;;
77409;SDS011;66481;51.332;22.804;2023-07-13T08:16:03;11.88;;;9.50;;
77409;SDS011;66481;51.332;22.804;2023-07-13T08:20:07;13.27;;;9.95;;
77409;SDS011;66481;51.332;22.804;2023-07-13T08:24:09;11.32;;;9.15;;
77409;SDS011;66481;51.332;22.804;2023-07-13T08:28:11;10.13;;;8.93;;
77409;SDS011;66481;51.332;22.804;2023-07-13T08:32:14;14.02;;;10.00;;
77409;SDS011;66481;51.332;22.804;2023-07-13T08:36:15;11.48;;;9.90;;
77409;SDS011;66481;51.332;22.804;2023-07-13T08:40:17;11.50;;;10.30;;
77409;SDS011;66481;51.332;22.804;2023-07-13T08:44:26;13.73;;;10.50;;
77409;SDS011;66481;51.332;22.804;2023-07-13T08:48:55;14.65;;;10.45;;
77409;SDS011;66481;51.332;22.804;2023-07-13T08:53:02;16.45;;;11.00;;
77409;SDS011;66481;51.332;22.804;2023-07-13T08:57:16;13.65;;;10.98;;
77409;SDS011;66481;51.332;22.804;2023-07-13T09:06:13;13.95;;;10.85;;
77409;SDS011;66481;51.332;22.804;2023-07-13T09:10:21;12.63;;;10.57;;
77409;SDS011;66481;51.332;22.804;2023-07-13T09:19:01;13.45;;;9.80;;
77409;SDS011;66481;51.332;22.804;2023-07-13T09:23:10;17.52;;;11.40;;
77409;SDS011;66481;51.332;22.804;2023-07-13T09:27:24;13.52;;;10.52;;
77409;SDS011;66481;51.332;22.804;2023-07-13T09:35:37;14.32;;;12.82;;
77409;SDS011;66481;51.332;22.804;2023-07-13T09:39:39;14.90;;;12.57;;
77409;SDS011;66481;51.332;22.804;2023-07-13T09:48:14;16.55;;;13.55;;
77409;SDS011;66481;51.332;22.804;2023-07-13T09:52:17;14.07;;;12.45;;
77409;SDS011;66481;51.332;22.804;2023-07-13T09:56:25;16.48;;;11.05;;
77409;SDS011;66481;51.332;22.804;2023-07-13T10:00:29;13.43;;;11.23;;
77409;SDS011;66481;51.332;22.804;2023-07-13T10:04:34;13.45;;;11.20;;
77409;SDS011;66481;51.332;22.804;2023-07-13T10:08:36;17.15;;;11.52;;
77409;SDS011;66481;51.332;22.804;2023-07-13T10:16:40;13.98;;;11.15;;
77409;SDS011;66481;51.332;22.804;2023-07-13T10:20:44;13.73;;;10.25;;
77409;SDS011;66481;51.332;22.804;2023-07-13T10:24:46;12.05;;;10.05;;
77409;SDS011;66481;51.332;22.804;2023-07-13T10:28:50;12.02;;;10.73;;
77409;SDS011;66481;51.332;22.804;2023-07-13T10:33:00;12.82;;;11.55;;
77409;SDS011;66481;51.332;22.804;2023-07-13T10:37:07;12.63;;;11.23;;
77409;SDS011;66481;51.332;22.804;2023-07-13T10:41:22;16.05;;;10.13;;
77409;SDS011;66481;51.332;22.804;2023-07-13T10:45:27;11.00;;;9.90;;
77409;SDS011;66481;51.332;22.804;2023-07-13T10:49:35;11.95;;;9.98;;
77409;SDS011;66481;51.332;22.804;2023-07-13T10:57:43;13.30;;;9.82;;
77409;SDS011;66481;51.332;22.804;2023-07-13T11:01:49;11.23;;;10.05;;
77409;SDS011;66481;51.332;22.804;2023-07-13T11:06:37;11.23;;;10.13;;
77409;SDS011;66481;51.332;22.804;2023-07-13T11:15:45;11.57;;;10.32;;
77409;SDS011;66481;51.332;22.804;2023-07-13T11:19:50;13.23;;;10.82;;
77409;SDS011;66481;51.332;22.804;2023-07-13T11:23:54;11.25;;;10.05;;
77409;SDS011;66481;51.332;22.804;2023-07-13T11:28:16;11.80;;;10.60;;
77409;SDS011;66481;51.332;22.804;2023-07-13T11:32:30;13.88;;;11.23;;
77409;SDS011;66481;51.332;22.804;2023-07-13T11:36:35;13.50;;;11.27;;
77409;SDS011;66481;51.332;22.804;2023-07-13T11:40:40;13.07;;;11.70;;
77409;SDS011;66481;51.332;22.804;2023-07-13T11:44:46;12.95;;;11.10;;
77409;SDS011;66481;51.332;22.804;2023-07-13T11:48:49;11.45;;;9.98;;
77409;SDS011;66481;51.332;22.804;2023-07-13T11:52:51;11.70;;;10.30;;
77409;SDS011;66481;51.332;22.804;2023-07-13T11:57:39;12.32;;;10.73;;
77409;SDS011;66481;51.332;22.804;2023-07-13T12:01:31;12.93;;;11.63;;
77409;SDS011;66481;51.332;22.804;2023-07-13T12:05:36;11.30;;;9.93;;
77409;SDS011;66481;51.332;22.804;2023-07-13T12:09:37;11.77;;;9.40;;
77409;SDS011;66481;51.332;22.804;2023-07-13T12:13:39;14.32;;;10.23;;
77409;SDS011;66481;51.332;22.804;2023-07-13T12:17:40;12.48;;;10.63;;
77409;SDS011;66481;51.332;22.804;2023-07-13T12:21:43;13.23;;;9.45;;
77409;SDS011;66481;51.332;22.804;2023-07-13T12:25:45;14.05;;;11.10;;
77409;SDS011;66481;51.332;22.804;2023-07-13T12:29:50;12.00;;;10.45;;
77409;SDS011;66481;51.332;22.804;2023-07-13T12:38:12;13.18;;;10.90;;
77409;SDS011;66481;51.332;22.804;2023-07-13T12:42:18;11.07;;;9.98;;
77409;SDS011;66481;51.332;22.804;2023-07-13T12:46:24;11.57;;;10.38;;
77409;SDS011;66481;51.332;22.804;2023-07-13T12:50:39;13.55;;;11.02;;
77409;SDS011;66481;51.332;22.804;2023-07-13T12:54:52;10.60;;;9.57;;
77409;SDS011;66481;51.332;22.804;2023-07-13T12:59:00;13.55;;;9.50;;
77409;SDS011;66481;51.332;22.804;2023-07-13T13:03:05;13.38;;;11.18;;
77409;SDS011;66481;51.332;22.804;2023-07-13T13:07:27;13.55;;;9.90;;
77409;SDS011;66481;51.332;22.804;2023-07-13T13:11:30;12.25;;;11.05;;
77409;SDS011;66481;51.332;22.804;2023-07-13T13:15:34;13.18;;;11.55;;
77409;SDS011;66481;51.332;22.804;2023-07-13T13:19:37;12.65;;;11.35;;
77409;SDS011;66481;51.332;22.804;2023-07-13T13:23:41;12.65;;;10.60;;
77409;SDS011;66481;51.332;22.804;2023-07-13T13:27:45;13.02;;;10.80;;
77409;SDS011;66481;51.332;22.804;2023-07-13T13:31:47;11.85;;;10.35;;
77409;SDS011;66481;51.332;22.804;2023-07-13T13:35:49;12.20;;;10.90;;
77409;SDS011;66481;51.332;22.804;2023-07-13T13:39:52;12.25;;;10.50;;
77409;SDS011;66481;51.332;22.804;2023-07-13T13:47:57;12.65;;;10.10;;
77409;SDS011;66481;51.332;22.804;2023-07-13T13:51:59;11.82;;;10.45;;
77409;SDS011;66481;51.332;22.804;2023-07-13T13:56:01;12.93;;;11.02;;
77409;SDS011;66481;51.332;22.804;2023-07-13T14:00:02;13.68;;;10.20;;
77409;SDS011;66481;51.332;22.804;2023-07-13T14:04:06;109.68;;;97.85;;
77409;SDS011;66481;51.332;22.804;2023-07-13T14:08:16;175.45;;;144.07;;
77409;SDS011;66481;51.332;22.804;2023-07-13T14:12:21;120.00;;;65.75;;
77409;SDS011;66481;51.332;22.804;2023-07-13T14:16:22;32.50;;;19.25;;
77409;SDS011;66481;51.332;22.804;2023-07-13T14:20:33;24.80;;;16.25;;
77409;SDS011;66481;51.332;22.804;2023-07-13T14:24:34;21.77;;;16.67;;
77409;SDS011;66481;51.332;22.804;2023-07-13T14:28:35;20.73;;;12.93;;
77409;SDS011;66481;51.332;22.804;2023-07-13T14:32:44;12.82;;;10.85;;
77409;SDS011;66481;51.332;22.804;2023-07-13T14:36:47;26.65;;;15.95;;
77409;SDS011;66481;51.332;22.804;2023-07-13T14:40:50;25.27;;;16.98;;
77409;SDS011;66481;51.332;22.804;2023-07-13T14:44:53;26.02;;;17.40;;
77409;SDS011;66481;51.332;22.804;2023-07-13T14:49:02;16.33;;;12.80;;
77409;SDS011;66481;51.332;22.804;2023-07-13T14:53:13;12.07;;;10.88;;
77409;SDS011;66481;51.332;22.804;2023-07-13T14:57:16;15.10;;;11.55;;
77409;SDS011;66481;51.332;22.804;2023-07-13T15:01:19;49.55;;;29.77;;
77409;SDS011;66481;51.332;22.804;2023-07-13T15:05:24;45.90;;;28.85;;
77409;SDS011;66481;51.332;22.804;2023-07-13T15:09:31;18.15;;;14.55;;
77409;SDS011;66481;51.332;22.804;2023-07-13T15:13:31;17.35;;;14.27;;
77409;SDS011;66481;51.332;22.804;2023-07-13T15:17:35;17.65;;;13.73;;
77409;SDS011;66481;51.332;22.804;2023-07-13T15:21:37;13.45;;;11.98;;
77409;SDS011;66481;51.332;22.804;2023-07-13T15:25:41;16.02;;;14.27;;
77409;SDS011;66481;51.332;22.804;2023-07-13T15:29:44;14.55;;;13.00;;
77409;SDS011;66481;51.332;22.804;2023-07-13T15:33:46;17.45;;;7.03;;
77409;SDS011;66481;51.332;22.804;2023-07-13T15:37:50;7.05;;;5.40;;
77409;SDS011;66481;51.332;22.804;2023-07-13T15:45:55;9.98;;;5.40;;
77409;SDS011;66481;51.332;22.804;2023-07-13T15:49:56;13.40;;;7.05;;
77409;SDS011;66481;51.332;22.804;2023-07-13T15:53:59;18.13;;;8.02;;
77409;SDS011;66481;51.332;22.804;2023-07-13T15:58:08;13.60;;;8.75;;
77409;SDS011;66481;51.332;22.804;2023-07-13T16:02:21;9.18;;;6.97;;
77409;SDS011;66481;51.332;22.804;2023-07-13T16:06:23;17.40;;;7.53;;
77409;SDS011;66481;51.332;22.804;2023-07-13T16:10:35;14.30;;;7.25;;
77409;SDS011;66481;51.332;22.804;2023-07-13T16:18:42;16.27;;;8.35;;
77409;SDS011;66481;51.332;22.804;2023-07-13T16:22:45;9.88;;;5.65;;
77409;SDS011;66481;51.332;22.804;2023-07-13T16:26:48;11.63;;;6.15;;
77409;SDS011;66481;51.332;22.804;2023-07-13T16:30:50;10.10;;;6.68;;
77409;SDS011;66481;51.332;22.804;2023-07-13T16:34:51;15.73;;;8.20;;
77409;SDS011;66481;51.332;22.804;2023-07-13T16:38:53;13.98;;;7.40;;
77409;SDS011;66481;51.332;22.804;2023-07-13T16:42:56;11.82;;;7.57;;
77409;SDS011;66481;51.332;22.804;2023-07-13T16:46:59;16.73;;;7.53;;
77409;SDS011;66481;51.332;22.804;2023-07-13T16:51:02;32.33;;;13.32;;
77409;SDS011;66481;51.332;22.804;2023-07-13T16:55:05;93.53;;;30.77;;
77409;SDS011;66481;51.332;22.804;2023-07-13T16:59:12;69.90;;;23.08;;
77409;SDS011;66481;51.332;22.804;2023-07-13T17:03:15;77.53;;;26.95;;
77409;SDS011;66481;51.332;22.804;2023-07-13T17:07:19;30.75;;;12.80;;
77409;SDS011;66481;51.332;22.804;2023-07-13T17:11:24;18.38;;;8.82;;
77409;SDS011;66481;51.332;22.804;2023-07-13T17:15:27;20.50;;;9.98;;
77409;SDS011;66481;51.332;22.804;2023-07-13T17:19:30;17.85;;;8.57;;
77409;SDS011;66481;51.332;22.804;2023-07-13T17:23:37;18.50;;;8.23;;
77409;SDS011;66481;51.332;22.804;2023-07-13T17:27:40;51.92;;;20.02;;
77409;SDS011;66481;51.332;22.804;2023-07-13T17:31:41;32.45;;;15.13;;
77409;SDS011;66481;51.332;22.804;2023-07-13T17:35:43;8.95;;;5.97;;
77409;SDS011;66481;51.332;22.804;2023-07-13T17:39:46;6.38;;;5.38;;
77409;SDS011;66481;51.332;22.804;2023-07-13T17:43:48;5.53;;;4.93;;
77409;SDS011;66481;51.332;22.804;2023-07-13T17:47:49;6.90;;;5.00;;
77409;SDS011;66481;51.332;22.804;2023-07-13T17:51:53;5.68;;;4.53;;
77409;SDS011;66481;51.332;22.804;2023-07-13T17:55:54;6.45;;;5.05;;
77409;SDS011;66481;51.332;22.804;2023-07-13T17:59:55;13.40;;;7.53;;
77409;SDS011;66481;51.332;22.804;2023-07-13T18:03:59;45.65;;;17.45;;
77409;SDS011;66481;51.332;22.804;2023-07-13T18:08:01;120.13;;;38.17;;
77409;SDS011;66481;51.332;22.804;2023-07-13T18:12:07;157.48;;;56.10;;
77409;SDS011;66481;51.332;22.804;2023-07-13T18:16:14;15.93;;;8.23;;
77409;SDS011;66481;51.332;22.804;2023-07-13T18:20:21;7.63;;;5.80;;
77409;SDS011;66481;51.332;22.804;2023-07-13T18:24:23;7.90;;;6.32;;
77409;SDS011;66481;51.332;22.804;2023-07-13T18:28:24;7.55;;;5.97;;
77409;SDS011;66481;51.332;22.804;2023-07-13T18:32:26;41.92;;;20.00;;
77409;SDS011;66481;51.332;22.804;2023-07-13T18:36:28;15.43;;;9.02;;
77409;SDS011;66481;51.332;22.804;2023-07-13T18:40:31;23.38;;;12.77;;
77409;SDS011;66481;51.332;22.804;2023-07-13T18:44:34;7.97;;;6.18;;
77409;SDS011;66481;51.332;22.804;2023-07-13T18:48:36;6.45;;;5.78;;
77409;SDS011;66481;51.332;22.804;2023-07-13T18:52:37;8.63;;;6.40;;
77409;SDS011;66481;51.332;22.804;2023-07-13T18:56:38;8.20;;;6.57;;
77409;SDS011;66481;51.332;22.804;2023-07-13T19:00:40;9.70;;;7.30;;
77409;SDS011;66481;51.332;22.804;2023-07-13T19:04:42;10.30;;;6.25;;
77409;SDS011;66481;51.332;22.804;2023-07-13T19:08:44;10.05;;;8.40;;
77409;SDS011;66481;51.332;22.804;2023-07-13T19:12:46;14.25;;;9.18;;
77409;SDS011;66481;51.332;22.804;2023-07-13T19:16:53;11.18;;;8.18;;
77409;SDS011;66481;51.332;22.804;2023-07-13T19:20:57;11.43;;;8.77;;
77409;SDS011;66481;51.332;22.804;2023-07-13T19:25:02;10.27;;;8.20;;
77409;SDS011;66481;51.332;22.804;2023-07-13T19:29:03;10.35;;;9.07;;
77409;SDS011;66481;51.332;22.804;2023-07-13T19:33:08;9.93;;;7.32;;
77409;SDS011;66481;51.332;22.804;2023-07-13T19:41:24;10.95;;;7.60;;
77409;SDS011;66481;51.332;22.804;2023-07-13T19:45:28;12.73;;;8.32;;
77409;SDS011;66481;51.332;22.804;2023-07-13T19:49:30;16.92;;;10.45;;
77409;SDS011;66481;51.332;22.804;2023-07-13T19:53:31;16.88;;;10.85;;
77409;SDS011;66481;51.332;22.804;2023-07-13T19:57:32;14.77;;;10.45;;
77409;SDS011;66481;51.332;22.804;2023-07-13T20:01:33;12.75;;;8.63;;
77409;SDS011;66481;51.332;22.804;2023-07-13T20:05:35;13.05;;;7.88;;
77409;SDS011;66481;51.332;22.804;2023-07-13T20:09:38;12.68;;;8.93;;
77409;SDS011;66481;51.332;22.804;2023-07-13T20:13:44;13.68;;;9.98;;
77409;SDS011;66481;51.332;22.804;2023-07-13T20:17:47;12.82;;;9.85;;
77409;SDS011;66481;51.332;22.804;2023-07-13T20:21:50;18.73;;;9.48;;
77409;SDS011;66481;51.332;22.804;2023-07-13T20:25:52;18.17;;;10.02;;
77409;SDS011;66481;51.332;22.804;2023-07-13T20:29:54;12.75;;;8.65;;
77409;SDS011;66481;51.332;22.804;2023-07-13T20:33:57;14.02;;;8.68;;
77409;SDS011;66481;51.332;22.804;2023-07-13T20:38:00;15.90;;;8.98;;
77409;SDS011;66481;51.332;22.804;2023-07-13T20:42:08;11.65;;;8.35;;
77409;SDS011;66481;51.332;22.804;2023-07-13T20:46:12;14.77;;;8.77;;
77409;SDS011;66481;51.332;22.804;2023-07-13T20:50:27;21.60;;;9.80;;
77409;SDS011;66481;51.332;22.804;2023-07-13T20:54:29;12.23;;;9.45;;
77409;SDS011;66481;51.332;22.804;2023-07-13T20:58:30;18.95;;;11.23;;
77409;SDS011;66481;51.332;22.804;2023-07-13T21:06:34;20.65;;;12.50;;
77409;SDS011;66481;51.332;22.804;2023-07-13T21:10:38;17.73;;;12.25;;
77409;SDS011;66481;51.332;22.804;2023-07-13T21:14:39;19.08;;;13.40;;
77409;SDS011;66481;51.332;22.804;2023-07-13T21:18:47;20.70;;;13.90;;
77409;SDS011;66481;51.332;22.804;2023-07-13T21:22:49;21.92;;;13.90;;
77409;SDS011;66481;51.332;22.804;2023-07-13T21:26:51;21.13;;;14.18;;
77409;SDS011;66481;51.332;22.804;2023-07-13T21:30:57;27.65;;;15.48;;
77409;SDS011;66481;51.332;22.804;2023-07-13T21:35:00;21.33;;;14.60;;
77409;SDS011;66481;51.332;22.804;2023-07-13T21:39:09;22.50;;;15.15;;
77409;SDS011;66481;51.332;22.804;2023-07-13T21:43:14;23.77;;;16.33;;
77409;SDS011;66481;51.332;22.804;2023-07-13T21:47:16;25.23;;;16.98;;
77409;SDS011;66481;51.332;22.804;2023-07-13T21:51:19;25.08;;;15.50;;
77409;SDS011;66481;51.332;22.804;2023-07-13T21:55:24;23.17;;;16.80;;
77409;SDS011;66481;51.332;22.804;2023-07-13T22:03:32;21.00;;;15.02;;
77409;SDS011;66481;51.332;22.804;2023-07-13T22:07:35;23.30;;;16.75;;
77409;SDS011;66481;51.332;22.804;2023-07-13T22:11:36;26.15;;;16.77;;
77409;SDS011;66481;51.332;22.804;2023-07-13T22:15:37;29.63;;;16.90;;
77409;SDS011;66481;51.332;22.804;2023-07-13T22:19:39;29.40;;;17.70;;
77409;SDS011;66481;51.332;22.804;2023-07-13T22:23:40;31.83;;;18.50;;
77409;SDS011;66481;51.332;22.804;2023-07-13T22:27:41;29.15;;;17.35;;
77409;SDS011;66481;51.332;22.804;2023-07-13T22:31:45;26.70;;;17.27;;
77409;SDS011;66481;51.332;22.804;2023-07-13T22:35:47;26.90;;;18.05;;
77409;SDS011;66481;51.332;22.804;2023-07-13T22:39:49;33.63;;;19.63;;
77409;SDS011;66481;51.332;22.804;2023-07-13T22:43:51;30.75;;;18.88;;
77409;SDS011;66481;51.332;22.804;2023-07-13T22:47:51;29.83;;;18.25;;
77409;SDS011;66481;51.332;22.804;2023-07-13T22:51:52;33.67;;;19.73;;
77409;SDS011;66481;51.332;22.804;2023-07-13T22:55:53;35.80;;;18.30;;
77409;SDS011;66481;51.332;22.804;2023-07-13T22:59:54;33.22;;;19.67;;
77409;SDS011;66481;51.332;22.804;2023-07-13T23:03:55;37.03;;;20.77;;
77409;SDS011;66481;51.332;22.804;2023-07-13T23:07:58;28.83;;;19.65;;
77409;SDS011;66481;51.332;22.804;2023-07-13T23:12:00;31.08;;;18.45;;
77409;SDS011;66481;51.332;22.804;2023-07-13T23:16:01;30.30;;;18.17;;
77409;SDS011;66481;51.332;22.804;2023-07-13T23:20:06;34.13;;;19.80;;
77409;SDS011;66481;51.332;22.804;2023-07-13T23:24:14;35.10;;;21.30;;
77409;SDS011;66481;51.332;22.804;2023-07-13T23:28:16;38.72;;;22.42;;
77409;SDS011;66481;51.332;22.804;2023-07-13T23:32:17;34.83;;;21.33;;
77409;SDS011;66481;51.332;22.804;2023-07-13T23:36:18;34.50;;;19.80;;
77409;SDS011;66481;51.332;22.804;2023-07-13T23:40:22;41.17;;;22.67;;
77409;SDS011;66481;51.332;22.804;2023-07-13T23:44:26;34.65;;;20.20;;
77409;SDS011;66481;51.332;22.804;2023-07-13T23:48:27;39.00;;;20.80;;
77409;SDS011;66481;51.332;22.804;2023-07-13T23:52:28;34.42;;;21.02;;
77409;SDS011;66481;51.332;22.804;2023-07-13T23:56:32;37.72;;;21.30;;
